sensor_id;sensor_type;location;lat;lon;timestamp;pressure;altitude;pressure_sealevel;temperature;humidity
66176;BME280;52977;44.816;20.538;2023-01-04T00:00:35;101073.31;;;7.74;100.00
66176;BME280;52977;44.816;20.538;2023-01-04T00:03:02;101088.81;;;7.68;100.00
66176;BME280;52977;44.816;20.538;2023-01-04T00:05:28;101033.28;;;7.33;100.00
66176;BME280;52977;44.816;20.538;2023-01-04T00:07:53;101083.91;;;7.76;100.00
66176;BME280;52977;44.816;20.538;2023-01-04T00:10:20;101031.69;;;7.43;100.00
66176;BME280;52977;44.816;20.538;2023-01-04T00:12:46;101064.38;;;7.79;100.00
66176;BME280;52977;44.816;20.538;2023-01-04T00:15:12;101039.59;;;7.70;100.00
66176;BME280;52977;44.816;20.538;2023-01-04T00:17:38;101079.63;;;8.11;100.00
66176;BME280;52977;44.816;20.538;2023-01-04T00:20:04;101002.59;;;7.33;100.00
66176;BME280;52977;44.816;20.538;2023-01-04T00:22:33;101071.97;;;7.82;100.00
66176;BME280;52977;44.816;20.538;2023-01-04T00:24:59;101083.69;;;8.08;100.00
66176;BME280;52977;44.816;20.538;2023-01-04T00:27:25;101078.50;;;8.27;100.00
66176;BME280;52977;44.816;20.538;2023-01-04T00:29:51;101043.16;;;8.12;100.00
66176;BME280;52977;44.816;20.538;2023-01-04T00:32:17;101077.41;;;8.38;100.00
66176;BME280;52977;44.816;20.538;2023-01-04T00:34:45;101062.19;;;8.27;100.00
66176;BME280;52977;44.816;20.538;2023-01-04T00:37:11;101094.06;;;8.47;100.00
66176;BME280;52977;44.816;20.538;2023-01-04T00:39:37;101101.38;;;8.42;100.00
66176;BME280;52977;44.816;20.538;2023-01-04T00:42:03;101035.28;;;7.84;100.00
66176;BME280;52977;44.816;20.538;2023-01-04T00:44:33;101099.22;;;8.54;100.00
66176;BME280;52977;44.816;20.538;2023-01-04T00:47:01;101106.81;;;8.62;100.00
66176;BME280;52977;44.816;20.538;2023-01-04T00:49:28;101102.75;;;8.49;100.00
66176;BME280;52977;44.816;20.538;2023-01-04T00:51:55;101108.97;;;7.98;100.00
66176;BME280;52977;44.816;20.538;2023-01-04T00:54:22;101116.59;;;8.17;100.00
66176;BME280;52977;44.816;20.538;2023-01-04T00:56:49;101081.50;;;8.05;100.00
66176;BME280;52977;44.816;20.538;2023-01-04T00:59:16;101086.66;;;7.86;100.00
66176;BME280;52977;44.816;20.538;2023-01-04T01:01:43;101121.75;;;8.13;100.00
66176;BME280;52977;44.816;20.538;2023-01-04T01:04:11;101099.19;;;8.08;100.00
66176;BME280;52977;44.816;20.538;2023-01-04T01:06:37;101115.78;;;8.21;100.00
66176;BME280;52977;44.816;20.538;2023-01-04T01:09:03;101117.16;;;8.34;100.00
66176;BME280;52977;44.816;20.538;2023-01-04T01:11:29;101114.44;;;8.24;100.00
66176;BME280;52977;44.816;20.538;2023-01-04T01:13:56;101124.22;;;8.15;100.00
66176;BME280;52977;44.816;20.538;2023-01-04T01:16:24;101108.19;;;8.18;100.00
66176;BME280;52977;44.816;20.538;2023-01-04T01:18:50;101119.88;;;8.24;100.00
66176;BME280;52977;44.816;20.538;2023-01-04T01:21:19;101082.84;;;7.92;100.00
66176;BME280;52977;44.816;20.538;2023-01-04T01:23:46;101064.66;;;7.93;100.00
66176;BME280;52977;44.816;20.538;2023-01-04T01:26:14;101107.06;;;8.25;100.00
66176;BME280;52977;44.816;20.538;2023-01-04T01:28:41;101120.69;;;8.30;100.00
66176;BME280;52977;44.816;20.538;2023-01-04T01:31:13;101064.66;;;7.87;100.00
66176;BME280;52977;44.816;20.538;2023-01-04T01:33:41;101117.13;;;8.03;100.00
66176;BME280;52977;44.816;20.538;2023-01-04T01:36:09;101046.34;;;7.42;100.00
66176;BME280;52977;44.816;20.538;2023-01-04T01:38:36;101119.84;;;8.03;100.00
66176;BME280;52977;44.816;20.538;2023-01-04T01:41:04;101110.06;;;7.97;100.00
66176;BME280;52977;44.816;20.538;2023-01-04T01:44:01;101119.56;;;8.05;100.00
66176;BME280;52977;44.816;20.538;2023-01-04T01:46:33;101120.66;;;7.99;100.00
66176;BME280;52977;44.816;20.538;2023-01-04T01:49:04;101117.97;;;8.04;100.00
66176;BME280;52977;44.816;20.538;2023-01-04T01:51:34;101124.22;;;8.15;100.00
66176;BME280;52977;44.816;20.538;2023-01-04T01:54:04;101122.00;;;7.86;100.00
66176;BME280;52977;44.816;20.538;2023-01-04T01:56:32;101124.22;;;7.94;100.00
66176;BME280;52977;44.816;20.538;2023-01-04T01:59:00;101085.31;;;7.73;100.00
66176;BME280;52977;44.816;20.538;2023-01-04T02:01:27;101120.41;;;8.16;100.00
66176;BME280;52977;44.816;20.538;2023-01-04T02:03:54;101115.78;;;8.37;100.00
66176;BME280;52977;44.816;20.538;2023-01-04T02:06:24;101111.72;;;8.29;100.00
66176;BME280;52977;44.816;20.538;2023-01-04T02:08:53;101107.91;;;8.41;100.00
66176;BME280;52977;44.816;20.538;2023-01-04T02:11:19;101107.66;;;8.47;100.00
66176;BME280;52977;44.816;20.538;2023-01-04T02:13:46;101095.09;;;8.41;100.00
66176;BME280;52977;44.816;20.538;2023-01-04T02:16:52;101080.16;;;8.49;100.00
66176;BME280;52977;44.816;20.538;2023-01-04T02:35:58;101095.41;;;8.50;100.00
66176;BME280;52977;44.816;20.538;2023-01-04T02:41:33;101089.66;;;8.67;100.00
66176;BME280;52977;44.816;20.538;2023-01-04T02:44:14;101104.38;;;8.71;100.00
66176;BME280;52977;44.816;20.538;2023-01-04T02:47:16;101089.16;;;8.54;100.00
66176;BME280;52977;44.816;20.538;2023-01-04T02:55:39;101100.81;;;8.76;100.00
66176;BME280;52977;44.816;20.538;2023-01-04T03:04:36;101094.56;;;8.65;100.00
66176;BME280;52977;44.816;20.538;2023-01-04T03:13:07;101095.38;;;8.70;100.00
66176;BME280;52977;44.816;20.538;2023-01-04T03:15:38;101103.81;;;8.74;100.00
66176;BME280;52977;44.816;20.538;2023-01-04T03:18:12;101106.81;;;8.78;100.00
66176;BME280;52977;44.816;20.538;2023-01-04T03:20:41;101063.00;;;8.53;100.00
66176;BME280;52977;44.816;20.538;2023-01-04T03:23:13;101084.47;;;8.70;100.00
66176;BME280;52977;44.816;20.538;2023-01-04T03:29:22;101092.91;;;8.79;100.00
66176;BME280;52977;44.816;20.538;2023-01-04T03:32:17;101087.19;;;8.70;100.00
66176;BME280;52977;44.816;20.538;2023-01-04T03:35:03;101086.41;;;8.65;100.00
66176;BME280;52977;44.816;20.538;2023-01-04T03:38:10;101099.47;;;8.63;100.00
66176;BME280;52977;44.816;20.538;2023-01-04T03:41:03;101108.44;;;8.58;100.00
66176;BME280;52977;44.816;20.538;2023-01-04T03:47:04;101063.81;;;8.23;100.00
66176;BME280;52977;44.816;20.538;2023-01-04T03:50:01;101110.63;;;8.71;100.00
66176;BME280;52977;44.816;20.538;2023-01-04T03:52:30;101116.34;;;8.75;100.00
66176;BME280;52977;44.816;20.538;2023-01-04T03:54:59;101103.00;;;8.63;100.00
66176;BME280;52977;44.816;20.538;2023-01-04T03:57:26;101121.22;;;8.73;100.00
66176;BME280;52977;44.816;20.538;2023-01-04T04:00:08;101130.75;;;8.76;100.00
66176;BME280;52977;44.816;20.538;2023-01-04T04:02:35;101119.34;;;8.74;100.00
66176;BME280;52977;44.816;20.538;2023-01-04T04:05:03;101123.66;;;8.75;100.00
66176;BME280;52977;44.816;20.538;2023-01-04T04:07:47;101114.72;;;8.59;100.00
66176;BME280;52977;44.816;20.538;2023-01-04T04:10:31;101110.38;;;8.63;100.00
66176;BME280;52977;44.816;20.538;2023-01-04T04:12:56;101062.47;;;8.36;100.00
66176;BME280;52977;44.816;20.538;2023-01-04T04:15:23;101091.59;;;8.51;100.00
66176;BME280;52977;44.816;20.538;2023-01-04T04:17:49;101122.63;;;8.65;100.00
66176;BME280;52977;44.816;20.538;2023-01-04T04:20:15;101102.19;;;8.58;100.00
66176;BME280;52977;44.816;20.538;2023-01-04T04:22:41;101120.16;;;8.74;100.00
66176;BME280;52977;44.816;20.538;2023-01-04T04:25:08;101113.91;;;8.53;100.00
66176;BME280;52977;44.816;20.538;2023-01-04T04:27:34;101120.41;;;8.62;100.00
66176;BME280;52977;44.816;20.538;2023-01-04T04:30:00;101123.69;;;8.59;100.00
66176;BME280;52977;44.816;20.538;2023-01-04T04:32:27;101122.63;;;8.65;100.00
66176;BME280;52977;44.816;20.538;2023-01-04T04:34:53;100970.88;;;7.75;100.00
66176;BME280;52977;44.816;20.538;2023-01-04T04:37:19;101146.56;;;8.63;100.00
66176;BME280;52977;44.816;20.538;2023-01-04T04:39:45;101141.66;;;8.70;100.00
66176;BME280;52977;44.816;20.538;2023-01-04T04:42:12;101135.16;;;8.61;100.00
66176;BME280;52977;44.816;20.538;2023-01-04T04:44:38;101137.59;;;8.68;100.00
66176;BME280;52977;44.816;20.538;2023-01-04T04:47:04;101141.13;;;8.74;100.00
66176;BME280;52977;44.816;20.538;2023-01-04T04:49:30;101152.53;;;8.70;100.00
66176;BME280;52977;44.816;20.538;2023-01-04T04:51:57;101154.19;;;8.71;100.00
66176;BME280;52977;44.816;20.538;2023-01-04T04:54:23;101126.13;;;8.61;100.00
66176;BME280;52977;44.816;20.538;2023-01-04T04:56:49;101158.53;;;8.67;100.00
66176;BME280;52977;44.816;20.538;2023-01-04T04:59:16;101063.31;;;8.11;100.00
66176;BME280;52977;44.816;20.538;2023-01-04T05:01:42;101141.13;;;8.68;100.00
66176;BME280;52977;44.816;20.538;2023-01-04T05:04:08;101117.72;;;8.47;100.00
66176;BME280;52977;44.816;20.538;2023-01-04T05:06:39;101149.84;;;8.65;100.00
66176;BME280;52977;44.816;20.538;2023-01-04T05:09:05;101155.53;;;8.69;100.00
66176;BME280;52977;44.816;20.538;2023-01-04T05:11:31;101077.44;;;8.13;100.00
66176;BME280;52977;44.816;20.538;2023-01-04T05:14:16;101152.00;;;8.37;100.00
66176;BME280;52977;44.816;20.538;2023-01-04T05:16:42;101118.25;;;8.33;100.00
66176;BME280;52977;44.816;20.538;2023-01-04T05:19:10;101118.56;;;8.47;100.00
66176;BME280;52977;44.816;20.538;2023-01-04T05:21:36;101143.56;;;8.65;100.00
66176;BME280;52977;44.816;20.538;2023-01-04T05:24:02;101146.56;;;8.63;100.00
66176;BME280;52977;44.816;20.538;2023-01-04T05:26:28;101109.28;;;8.43;100.00
66176;BME280;52977;44.816;20.538;2023-01-04T05:28:53;101085.31;;;8.30;100.00
66176;BME280;52977;44.816;20.538;2023-01-04T05:31:19;101152.25;;;8.72;100.00
66176;BME280;52977;44.816;20.538;2023-01-04T05:33:45;101140.31;;;8.63;100.00
66176;BME280;52977;44.816;20.538;2023-01-04T05:36:11;101129.44;;;8.47;100.00
66176;BME280;52977;44.816;20.538;2023-01-04T05:38:37;101132.97;;;8.48;100.00
66176;BME280;52977;44.816;20.538;2023-01-04T05:41:04;101165.09;;;8.61;100.00
66176;BME280;52977;44.816;20.538;2023-01-04T05:43:49;101172.13;;;8.47;100.00
66176;BME280;52977;44.816;20.538;2023-01-04T05:46:15;101114.72;;;8.28;100.00
66176;BME280;52977;44.816;20.538;2023-01-04T05:48:41;101156.38;;;8.64;100.00
66176;BME280;52977;44.816;20.538;2023-01-04T05:51:08;101118.28;;;8.49;100.00
66176;BME280;52977;44.816;20.538;2023-01-04T05:53:34;101153.63;;;8.80;100.00
66176;BME280;52977;44.816;20.538;2023-01-04T05:55:59;101152.81;;;8.79;100.00
66176;BME280;52977;44.816;20.538;2023-01-04T05:58:25;101163.44;;;8.81;100.00
66176;BME280;52977;44.816;20.538;2023-01-04T06:00:51;101159.06;;;8.80;100.00
66176;BME280;52977;44.816;20.538;2023-01-04T06:03:16;101157.16;;;8.80;100.00
66176;BME280;52977;44.816;20.538;2023-01-04T06:05:42;101124.78;;;8.63;100.00
66176;BME280;52977;44.816;20.538;2023-01-04T06:08:08;101105.19;;;8.35;100.00
66176;BME280;52977;44.816;20.538;2023-01-04T06:10:34;101136.78;;;8.57;100.00
66176;BME280;52977;44.816;20.538;2023-01-04T06:13:01;101152.28;;;8.67;100.00
66176;BME280;52977;44.816;20.538;2023-01-04T06:15:27;101168.03;;;8.80;100.00
66176;BME280;52977;44.816;20.538;2023-01-04T06:17:53;101141.09;;;8.58;100.00
66176;BME280;52977;44.816;20.538;2023-01-04T06:20:19;101166.72;;;8.72;100.00
66176;BME280;52977;44.816;20.538;2023-01-04T06:22:45;101120.16;;;8.43;100.00
66176;BME280;52977;44.816;20.538;2023-01-04T06:25:11;101159.63;;;8.66;100.00
66176;BME280;52977;44.816;20.538;2023-01-04T06:27:37;101166.97;;;8.71;100.00
66176;BME280;52977;44.816;20.538;2023-01-04T06:30:04;101177.31;;;8.74;100.00
66176;BME280;52977;44.816;20.538;2023-01-04T06:32:30;101144.94;;;8.52;100.00
66176;BME280;52977;44.816;20.538;2023-01-04T06:34:56;101182.75;;;8.69;100.00
66176;BME280;52977;44.816;20.538;2023-01-04T06:37:23;101191.22;;;8.72;100.00
66176;BME280;52977;44.816;20.538;2023-01-04T06:39:49;101165.06;;;8.56;100.00
66176;BME280;52977;44.816;20.538;2023-01-04T06:42:15;101171.34;;;8.67;100.00
66176;BME280;52977;44.816;20.538;2023-01-04T06:45:14;101195.56;;;8.74;100.00
66176;BME280;52977;44.816;20.538;2023-01-04T06:47:41;101192.00;;;8.73;100.00
66176;BME280;52977;44.816;20.538;2023-01-04T06:50:08;101202.63;;;8.75;100.00
66176;BME280;52977;44.816;20.538;2023-01-04T06:52:34;101198.28;;;8.79;100.00
66176;BME280;52977;44.816;20.538;2023-01-04T06:55:01;101178.16;;;8.64;100.00
66176;BME280;52977;44.816;20.538;2023-01-04T06:57:27;101202.63;;;8.80;100.00
66176;BME280;52977;44.816;20.538;2023-01-04T06:59:53;101204.25;;;8.70;100.00
66176;BME280;52977;44.816;20.538;2023-01-04T07:02:19;101196.38;;;8.64;100.00
66176;BME280;52977;44.816;20.538;2023-01-04T07:04:45;101192.31;;;8.61;100.00
66176;BME280;52977;44.816;20.538;2023-01-04T07:07:12;101192.84;;;8.68;100.00
66176;BME280;52977;44.816;20.538;2023-01-04T07:09:37;101203.19;;;8.71;100.00
66176;BME280;52977;44.816;20.538;2023-01-04T07:12:04;101179.78;;;8.65;100.00
66176;BME280;52977;44.816;20.538;2023-01-04T07:14:30;101200.44;;;8.66;100.00
66176;BME280;52977;44.816;20.538;2023-01-04T07:16:56;101189.03;;;8.64;100.00
66176;BME280;52977;44.816;20.538;2023-01-04T07:19:22;101206.72;;;8.77;100.00
66176;BME280;52977;44.816;20.538;2023-01-04T07:21:47;101180.84;;;8.59;100.00
66176;BME280;52977;44.816;20.538;2023-01-04T07:24:14;101176.78;;;8.57;100.00
66176;BME280;52977;44.816;20.538;2023-01-04T07:26:39;101197.72;;;8.71;100.00
66176;BME280;52977;44.816;20.538;2023-01-04T07:29:05;101213.53;;;8.80;100.00
66176;BME280;52977;44.816;20.538;2023-01-04T07:31:42;101208.06;;;8.75;100.00
66176;BME280;52977;44.816;20.538;2023-01-04T07:34:08;101201.53;;;8.76;100.00
66176;BME280;52977;44.816;20.538;2023-01-04T07:36:34;101161.53;;;8.45;100.00
66176;BME280;52977;44.816;20.538;2023-01-04T07:38:59;101171.34;;;8.46;100.00
66176;BME280;52977;44.816;20.538;2023-01-04T07:41:26;101219.50;;;8.82;100.00
66176;BME280;52977;44.816;20.538;2023-01-04T07:43:52;101190.91;;;8.69;100.00
66176;BME280;52977;44.816;20.538;2023-01-04T07:46:18;101207.25;;;8.84;100.00
66176;BME280;52977;44.816;20.538;2023-01-04T07:48:44;101208.88;;;8.85;100.00
66176;BME280;52977;44.816;20.538;2023-01-04T07:51:10;101188.19;;;8.43;100.00
66176;BME280;52977;44.816;20.538;2023-01-04T07:53:37;101204.56;;;8.59;100.00
66176;BME280;52977;44.816;20.538;2023-01-04T07:56:03;101205.34;;;8.49;100.00
66176;BME280;52977;44.816;20.538;2023-01-04T07:58:33;101208.34;;;8.58;100.00
66176;BME280;52977;44.816;20.538;2023-01-04T08:01:10;101232.03;;;8.83;100.00
66176;BME280;52977;44.816;20.538;2023-01-04T08:03:36;101216.78;;;8.71;100.00
66176;BME280;52977;44.816;20.538;2023-01-04T08:06:06;101240.75;;;8.69;100.00
66176;BME280;52977;44.816;20.538;2023-01-04T08:08:33;101238.84;;;8.75;100.00
66176;BME280;52977;44.816;20.538;2023-01-04T08:11:04;101204.53;;;8.69;100.00
66176;BME280;52977;44.816;20.538;2023-01-04T08:13:31;101239.38;;;8.98;100.00
66176;BME280;52977;44.816;20.538;2023-01-04T08:15:57;101232.88;;;8.83;100.00
66176;BME280;52977;44.816;20.538;2023-01-04T08:18:23;101230.94;;;8.63;100.00
66176;BME280;52977;44.816;20.538;2023-01-04T08:20:49;101236.41;;;8.84;100.00
66176;BME280;52977;44.816;20.538;2023-01-04T08:23:16;101201.53;;;8.70;100.00
66176;BME280;52977;44.816;20.538;2023-01-04T08:25:42;101189.28;;;8.73;100.00
66176;BME280;52977;44.816;20.538;2023-01-04T08:28:08;101232.59;;;9.00;100.00
66176;BME280;52977;44.816;20.538;2023-01-04T08:30:33;101242.38;;;8.96;100.00
66176;BME280;52977;44.816;20.538;2023-01-04T08:33:00;101235.56;;;8.99;100.00
66176;BME280;52977;44.816;20.538;2023-01-04T08:35:26;101229.03;;;9.00;100.00
66176;BME280;52977;44.816;20.538;2023-01-04T08:37:52;101203.72;;;8.89;100.00
66176;BME280;52977;44.816;20.538;2023-01-04T08:40:18;101171.34;;;8.62;100.00
66176;BME280;52977;44.816;20.538;2023-01-04T08:42:44;101244.81;;;9.13;100.00
66176;BME280;52977;44.816;20.538;2023-01-04T08:45:11;101222.22;;;9.02;100.00
66176;BME280;52977;44.816;20.538;2023-01-04T08:47:37;101115.78;;;8.37;100.00
66176;BME280;52977;44.816;20.538;2023-01-04T08:50:03;101228.75;;;9.12;100.00
66176;BME280;52977;44.816;20.538;2023-01-04T08:52:30;101218.13;;;9.05;100.00
66176;BME280;52977;44.816;20.538;2023-01-04T08:54:56;101236.38;;;8.99;100.00
66176;BME280;52977;44.816;20.538;2023-01-04T08:57:22;101234.19;;;9.06;100.00
66176;BME280;52977;44.816;20.538;2023-01-04T08:59:48;101124.22;;;8.35;100.00
66176;BME280;52977;44.816;20.538;2023-01-04T09:02:24;101242.09;;;9.13;100.00
66176;BME280;52977;44.816;20.538;2023-01-04T09:04:51;101208.63;;;8.92;100.00
66176;BME280;52977;44.816;20.538;2023-01-04T09:07:17;101159.88;;;8.65;100.00
66176;BME280;52977;44.816;20.538;2023-01-04T09:09:44;101233.91;;;9.18;100.00
66176;BME280;52977;44.816;20.538;2023-01-04T09:12:10;101232.56;;;9.21;100.00
66176;BME280;52977;44.816;20.538;2023-01-04T09:14:36;101223.28;;;9.22;100.00
66176;BME280;52977;44.816;20.538;2023-01-04T09:17:03;101208.06;;;8.90;100.00
66176;BME280;52977;44.816;20.538;2023-01-04T09:19:30;101198.00;;;8.80;100.00
66176;BME280;52977;44.816;20.538;2023-01-04T09:21:56;101214.06;;;8.82;100.00
66176;BME280;52977;44.816;20.538;2023-01-04T09:24:22;101224.13;;;9.02;100.00
66176;BME280;52977;44.816;20.538;2023-01-04T09:26:49;101222.22;;;9.02;100.00
66176;BME280;52977;44.816;20.538;2023-01-04T09:29:16;101226.28;;;9.15;100.00
66176;BME280;52977;44.816;20.538;2023-01-04T09:31:42;101230.34;;;9.23;100.00
66176;BME280;52977;44.816;20.538;2023-01-04T09:34:10;101231.72;;;9.31;100.00
66176;BME280;52977;44.816;20.538;2023-01-04T09:36:36;101228.69;;;9.37;100.00
66176;BME280;52977;44.816;20.538;2023-01-04T09:39:03;101174.28;;;9.01;100.00
66176;BME280;52977;44.816;20.538;2023-01-04T09:41:38;101215.63;;;9.29;100.00
66176;BME280;52977;44.816;20.538;2023-01-04T09:54:18;101209.63;;;9.27;100.00
66176;BME280;52977;44.816;20.538;2023-01-04T09:56:50;101133.75;;;8.79;100.00
66176;BME280;52977;44.816;20.538;2023-01-04T09:59:19;101203.91;;;9.34;100.00
66176;BME280;52977;44.816;20.538;2023-01-04T10:01:52;101156.78;;;9.23;100.00
66176;BME280;52977;44.816;20.538;2023-01-04T10:04:28;101199.25;;;9.39;100.00
66176;BME280;52977;44.816;20.538;2023-01-04T10:07:00;101142.13;;;9.09;100.00
66176;BME280;52977;44.816;20.538;2023-01-04T10:09:26;101152.72;;;9.15;100.00
66176;BME280;52977;44.816;20.538;2023-01-04T10:12:05;101186.94;;;9.47;100.00
66176;BME280;52977;44.816;20.538;2023-01-04T10:14:40;101174.50;;;9.20;100.00
66176;BME280;52977;44.816;20.538;2023-01-04T10:25:56;101177.97;;;9.41;100.00
66176;BME280;52977;44.816;20.538;2023-01-04T10:34:29;101155.44;;;9.26;100.00
66176;BME280;52977;44.816;20.538;2023-01-04T10:36:35;101099.97;;;8.91;100.00
66176;BME280;52977;44.816;20.538;2023-01-04T10:39:12;101165.25;;;9.16;100.00
66176;BME280;52977;44.816;20.538;2023-01-04T10:42:07;101160.03;;;9.30;100.00
66176;BME280;52977;44.816;20.538;2023-01-04T10:44:55;101134.97;;;9.28;100.00
66176;BME280;52977;44.816;20.538;2023-01-04T10:47:31;101154.00;;;9.44;100.00
66176;BME280;52977;44.816;20.538;2023-01-04T10:50:07;101145.56;;;9.40;100.00
66176;BME280;52977;44.816;20.538;2023-01-04T10:52:44;101144.13;;;9.53;100.00
66176;BME280;52977;44.816;20.538;2023-01-04T10:55:16;101143.03;;;9.54;100.00
66176;BME280;52977;44.816;20.538;2023-01-04T10:58:03;101136.81;;;9.48;100.00
66176;BME280;52977;44.816;20.538;2023-01-04T11:00:42;101134.00;;;9.58;98.85
66176;BME280;52977;44.816;20.538;2023-01-04T11:03:22;101123.44;;;9.52;99.49
66176;BME280;52977;44.816;20.538;2023-01-04T11:05:53;101128.81;;;9.62;98.61
66176;BME280;52977;44.816;20.538;2023-01-04T11:08:27;101120.06;;;9.70;96.36
66176;BME280;52977;44.816;20.538;2023-01-04T11:11:01;101130.66;;;9.77;96.75
66176;BME280;52977;44.816;20.538;2023-01-04T11:13:29;101131.19;;;9.79;93.90
66176;BME280;52977;44.816;20.538;2023-01-04T11:15:56;101084.19;;;9.48;94.42
66176;BME280;52977;44.816;20.538;2023-01-04T11:18:23;101114.31;;;9.77;93.69
66176;BME280;52977;44.816;20.538;2023-01-04T11:20:49;101119.19;;;9.80;91.51
66176;BME280;52977;44.816;20.538;2023-01-04T11:23:18;101111.78;;;9.86;91.40
66176;BME280;52977;44.816;20.538;2023-01-04T11:26:03;101107.91;;;9.92;89.89
66176;BME280;52977;44.816;20.538;2023-01-04T11:28:48;101115.50;;;10.00;87.85
66176;BME280;52977;44.816;20.538;2023-01-04T11:38:57;101058.00;;;9.52;90.99
66176;BME280;52977;44.816;20.538;2023-01-04T11:41:24;101112.81;;;9.95;89.01
66176;BME280;52977;44.816;20.538;2023-01-04T11:44:04;101104.66;;;9.90;90.47
66176;BME280;52977;44.816;20.538;2023-01-04T11:46:32;101108.06;;;10.11;93.02
66176;BME280;52977;44.816;20.538;2023-01-04T11:48:59;101099.22;;;10.24;89.63
66176;BME280;52977;44.816;20.538;2023-01-04T11:54:03;101096.25;;;10.21;86.41
66176;BME280;52977;44.816;20.538;2023-01-04T11:56:32;101055.25;;;9.97;85.10
66176;BME280;52977;44.816;20.538;2023-01-04T12:01:37;101094.53;;;10.30;82.77
66176;BME280;52977;44.816;20.538;2023-01-04T12:04:10;101044.81;;;10.04;83.27
66176;BME280;52977;44.816;20.538;2023-01-04T12:06:37;101058.56;;;9.94;82.55
66176;BME280;52977;44.816;20.538;2023-01-04T12:09:12;101091.94;;;10.15;82.54
66176;BME280;52977;44.816;20.538;2023-01-04T12:11:42;101047.69;;;9.83;83.60
66176;BME280;52977;44.816;20.538;2023-01-04T12:17:13;101056.16;;;10.21;82.44
66176;BME280;52977;44.816;20.538;2023-01-04T12:19:43;101087.25;;;10.55;81.82
66176;BME280;52977;44.816;20.538;2023-01-04T12:22:39;101080.47;;;10.52;82.64
66176;BME280;52977;44.816;20.538;2023-01-04T12:25:40;101072.16;;;10.63;81.73
66176;BME280;52977;44.816;20.538;2023-01-04T12:28:29;101073.97;;;10.72;80.14
66176;BME280;52977;44.816;20.538;2023-01-04T12:33:59;101070.28;;;10.58;81.13
66176;BME280;52977;44.816;20.538;2023-01-04T12:50:13;101052.06;;;10.77;80.67
66176;BME280;52977;44.816;20.538;2023-01-04T12:52:41;101050.38;;;10.82;80.73
66176;BME280;52977;44.816;20.538;2023-01-04T12:55:51;101059.03;;;10.89;81.45
66176;BME280;52977;44.816;20.538;2023-01-04T13:08:15;101029.38;;;11.01;78.47
66176;BME280;52977;44.816;20.538;2023-01-04T13:10:46;101046.81;;;11.05;78.14
66176;BME280;52977;44.816;20.538;2023-01-04T13:18:42;101041.75;;;11.18;77.21
66176;BME280;52977;44.816;20.538;2023-01-04T13:21:40;101043.69;;;10.93;78.46
66176;BME280;52977;44.816;20.538;2023-01-04T13:24:29;101032.88;;;10.83;76.34
66176;BME280;52977;44.816;20.538;2023-01-04T13:27:03;101044.09;;;10.81;74.97
66176;BME280;52977;44.816;20.538;2023-01-04T13:29:33;101040.38;;;10.72;75.04
66176;BME280;52977;44.816;20.538;2023-01-04T13:32:20;101031.31;;;10.76;74.48
66176;BME280;52977;44.816;20.538;2023-01-04T13:37:43;100990.38;;;10.23;73.46
66176;BME280;52977;44.816;20.538;2023-01-04T13:40:25;101035.44;;;10.50;75.15
66176;BME280;52977;44.816;20.538;2023-01-04T13:45:48;101032.94;;;10.77;94.58
66176;BME280;52977;44.816;20.538;2023-01-04T13:48:20;101037.41;;;11.55;91.39
66176;BME280;52977;44.816;20.538;2023-01-04T13:51:02;101040.44;;;11.53;76.43
66176;BME280;52977;44.816;20.538;2023-01-04T13:53:30;101039.75;;;11.61;75.79
66176;BME280;52977;44.816;20.538;2023-01-04T13:55:58;101043.66;;;11.55;72.34
66176;BME280;52977;44.816;20.538;2023-01-04T13:58:29;101034.13;;;11.72;73.31
66176;BME280;52977;44.816;20.538;2023-01-04T14:01:03;101040.56;;;11.62;70.76
66176;BME280;52977;44.816;20.538;2023-01-04T14:09:11;101029.41;;;11.39;72.12
66176;BME280;52977;44.816;20.538;2023-01-04T14:24:47;101028.28;;;10.78;71.33
66176;BME280;52977;44.816;20.538;2023-01-04T14:27:34;100930.09;;;10.19;71.83
66176;BME280;52977;44.816;20.538;2023-01-04T14:32:59;101032.59;;;10.84;71.98
66176;BME280;52977;44.816;20.538;2023-01-04T14:35:28;101028.53;;;10.82;73.09
66176;BME280;52977;44.816;20.538;2023-01-04T14:38:01;101028.44;;;11.11;72.04
66176;BME280;52977;44.816;20.538;2023-01-04T14:40:29;101043.28;;;11.24;70.22
66176;BME280;52977;44.816;20.538;2023-01-04T14:42:58;101027.72;;;11.43;73.97
66176;BME280;52977;44.816;20.538;2023-01-04T14:45:24;101011.91;;;11.40;69.67
66176;BME280;52977;44.816;20.538;2023-01-04T14:47:50;101036.72;;;11.63;69.60
66176;BME280;52977;44.816;20.538;2023-01-04T14:50:17;101027.34;;;11.50;69.68
66176;BME280;52977;44.816;20.538;2023-01-04T14:52:50;100957.59;;;11.15;71.83
66176;BME280;52977;44.816;20.538;2023-01-04T14:55:16;101039.53;;;11.77;71.66
66176;BME280;52977;44.816;20.538;2023-01-04T14:57:43;101037.22;;;12.03;74.88
66176;BME280;52977;44.816;20.538;2023-01-04T15:00:14;101021.22;;;12.10;74.63
66176;BME280;52977;44.816;20.538;2023-01-04T15:02:40;101039.06;;;12.08;68.08
66176;BME280;52977;44.816;20.538;2023-01-04T15:05:06;101032.47;;;11.57;67.70
66176;BME280;52977;44.816;20.538;2023-01-04T15:07:33;101037.13;;;11.37;69.09
66176;BME280;52977;44.816;20.538;2023-01-04T15:10:05;101030.81;;;11.18;70.08
66176;BME280;52977;44.816;20.538;2023-01-04T15:12:31;101030.94;;;11.07;70.46
66176;BME280;52977;44.816;20.538;2023-01-04T15:14:57;101036.19;;;11.04;71.01
66176;BME280;52977;44.816;20.538;2023-01-04T15:17:22;101030.38;;;10.86;71.64
66176;BME280;52977;44.816;20.538;2023-01-04T15:19:48;101035.88;;;10.81;71.57